Stillwater, NJ (07875)

3:18 PM EDT on July 01, 2015 (GMT -0400)
APRSWXNET | | Change Station
CLOSE
Current Station
Personal Weather Station
Location: Blairstown, NJ
Elevation: 916 ft
Nearby Weather Stations

Elev 916 ft 41.00 °N, 75.00 °W | Updated 27 minutes ago

Partly Cloudy
Partly Cloudy
79 °F
Feels Like 81 °F
N
3
Wind Variable Wind from ENE
Gusts 4.0 mph

Today
High -- | Low -- °F
--% Chance of Precip.
Yesterday
High -- | Low -- °F
Precip. -- in
5:30 AM 8:35 PM
Full, 100% visible
Pressure 29.77 in
Visibility 9.0 miles
Clouds Scattered Clouds 5500 ft
Heat Index 81 °F
Dew Point 63 °F
Humidity 59%
Rainfall in
Snow Depth Not available.
UV 8 out of 12
Pollen .50 out of 12
Air Quality Not available.
Flu Activity Not available.
METAR KFWN 011853Z AUTO 26008G15KT 210V310 9SM SCT055 26/16 A2977 RMK AO2 SLP079 T02560156

More Conditions Fewer Conditions

Pressure 29.77 in
Visibility 9.0 miles
Clouds Scattered Clouds 5500 ft
Heat Index 81 °F
Dew Point 63 °F
Humidity 59%
Rainfall in
Snow Depth Not available.
UV 8 out of 12
Pollen .50 out of 12
Air Quality Not available.
Flu Activity Not available.
METAR KFWN 011853Z AUTO 26008G15KT 210V310 9SM SCT055 26/16 A2977 RMK AO2 SLP079 T02560156

More Conditions Fewer Conditions

10-Day Weather Forecast

×

Almanac

Astronomy

Jul. 01, 2015 Rise Set
Actual Time
Civil Twilight
Nautical Twilight
Astronomical Twilight
Moon
Length of Visible Light
Length of Day
Tomorrow will be .
, % of the Moon is Illuminated

Today's Extremes

State Highs State Lows

Community

WunderPhotos

Upload Photos

1,834,243 photos uploaded!

WunderBlogs® & News

Nearby

Air Quality

  Air Quality AQ Index Pollutant
Not available.

Snow Depth

Station Depth Elevation

Earthquake Activity

City Distance Mag. Time & Date
Minimum magnitude displayed is 2.5.

Coastal Water Temperatures

Place Temperature

Stations

Nearby Weather Stations

Station Location Temp. Windchill Dew Point Humidity Wind Precip. Elev Updated Type